Impacts METAR Board INFO
IDs:

KLGA - New York/La Guardia, NY, US

Updated at: 0852 UTC 19 Nov 2017
Potential Impact None Slight Moderate High
Time18/20Z 18/21Z 18/22Z 18/23Z 19/00Z 19/01Z 19/02Z 19/03Z 19/04Z 19/05Z 19/06Z 19/07Z 19/08Z
VIS10 10 10 9 8 10 10 10 10 10 10 10 10
CIG95 95 95 80 95 60 90 110 110 190 190 180 33
CoverOVCOVCOVCOVCOVCOVCBKNBKNBKNBKNBKNBKNOVC
FltCatVFRVFRVFRVFRVFRVFRVFRVFRVFRVFRVFRVFRVFR
WX-RA---RA-RARA-RA---RA-------RA-RA
WDir1802001900220200180180180180190190200
WSpd13 9 4 0 4 9 7 5 7 6 8 10 14
WGst20 -- -- -- -- -- -- -- -- -- -- -- 25
Raw hourly METARs
KLGA 181951Z 18013G20KT 10SM -RA OVC095 11/04 A2968 RMK AO2 RAE16B43 SLP049 P0000 T01110039
KLGA 182051Z 20009KT 10SM FEW075 OVC095 11/04 A2966 RMK AO2 RAE26 SLP045 P0001 60001 T01110039 56037
KLGA 182151Z 19004KT 10SM -RA FEW070 OVC095 11/05 A2964 RMK AO2 RAB2057 SLP036 P0001 T01060050
KLGA 182251Z 00000KT 9SM -RA BKN080 OVC090 10/06 A2963 RMK AO2 SLP032 P0003 T01000061
KLGA 182351Z 22004KT 8SM RA OVC095 11/07 A2961 RMK AO2 SLP027 P0004 60009 T01060072 10111 20100 56017
KLGA 190051Z 20009KT 10SM -RA OVC060 11/07 A2958 RMK AO2 RAE16B47 CIG 050 R22 SW SLP016 P0002 T01060072
KLGA 190151Z 18007KT 10SM SCT060 BKN090 11/07 A2954 RMK AO2 RAE49 SLP001 P0001 T01060072
KLGA 190251Z 18005KT 10SM -RA SCT060 BKN110 11/08 A2950 RMK AO2 RAB0158E15B42 SLP989 P0000 60003 T01110078 58039
KLGA 190351Z 18007KT 10SM FEW080 BKN110 13/10 A2944 RMK AO2 RAE11B32E45 SLP968 P0000 T01280100
KLGA 190451Z 18006KT 10SM FEW060 BKN190 13/10 A2940 RMK AO2 SLP957 T01330100 401330022
KLGA 190551Z 19008KT 10SM FEW060 BKN190 14/10 A2936 RMK AO2 SLP942 60003 T01390100 10139 20100 56047
KLGA 190651Z 19010KT 10SM -RA FEW075 SCT120 BKN180 14/11 A2932 RMK AO2 RAB45 SLP928 P0000 T01440106
KLGA 190751Z 20014G25KT 10SM -RA BKN033 OVC060 16/11 A2931 RMK AO2 SLP924 P0001 T01560111